Soaring Guidance
Issued by NWS Reno, NV

Home | Current Version | Previous Version | Text Only | Print | Product List | Glossary On
Versions: 1 2 3 4 5 6 7 8 9
000
UXUS97 KREV 241346
SRGREV

SOARING FORECAST
NATIONAL WEATHER SERVICE - RENO NV
700 AM PDT WED MAY 24 2017

THIS SOARING FORECAST IS FOR THE EASTERN SIERRA AND WESTERN NEVADA
WITH SPECIFIC INDICES FOR THE GREATER RENO AREA.

THIS FORECAST IS PREPARED DAILY BY 700 AM AND IS NOT UPDATED.

FOR CURRENT FLIGHT CONDITIONS...FORECASTS...AND ADVISORIES...ACCESS
YOUR LOCAL BRIEFING OUTLET OR FLIGHT SERVICE STATION.

*******************************************************************
FORECASTED LOCAL INDICES FOR RENO:        TODAY     YESTERDAY
FORECASTED MAX TEMP AT RENO (DEG F).....     85          92
FORECASTED TRIGGER TEMPERATURE (DEG F)..     74          75
   EXCEEDED YESTERDAY BY 1055 AM PDT
FORECASTED MAXIMUM ALTITUDE (FT MSL)....  15900       14900
FORECASTED SOARING INDEX (FPM)..........   1047         837
FORECASTED K-INDEX.........VALID 18Z....     17          17
FORECASTED K-INDEX.........VALID 00Z....      3          32
FORECASTED LIFTED INDEX....VALID 18Z....     17           5
FORECASTED LIFTED INDEX....VALID 00Z....      2          -2

AFTERNOON WINDS ALOFT FORECAST
MSL (FT) WIND/TEMP
9000  2622/+11
10000 2622/+08
12000 2723/+04
14000 2722/-01
16000 2721/-06
18000 2716/-12
24000 2813/-25
30000 9900/-41
34000 0218/-50
39000 3508/-59

SLIDE MOUNTAIN DATA:
     DATE       TIME     TEMP  DEWPT   RH         WIND (MPH)
                        (F)   (F)           | DIR  SPEED GUST
2017-05-24    05:20      45    34     54    | 148   47   55
2017-05-24    05:00      45    34     53    | 154   46   53
2017-05-24    04:50      46    34     52    | 145   43   51
2017-05-24    04:30      46    33     50    | 145   41   49

RENO TAF FORECAST:
KRNO 241120Z 2412/2512 VRB03KT P6SM FEW250
     FM241800 27018G28KT P6SM SCT080 SCT200
     FM250300 30014G22KT P6SM FEW080 BKN200
     FM250600 30007KT P6SM SCT080

CARSON CITY TAF FORECAST:
KCXP 241120Z 2412/2512 VRB03KT P6SM FEW250
     FM241800 25014G26KT P6SM SCT080 SCT200
     FM250200 26010G18KT P6SM FEW080 BKN200
     FM250500 29006KT P6SM SCT080

OUTLOOK FOR THE RENO-CARSON CITY-MINDEN AREA:
.THURSDAY...SUNNY. HIGHS 76 TO 81. LIGHT WINDS BECOMING WEST
10 TO 15 MPH WITH GUSTS UP TO 30 MPH IN THE AFTERNOON.

SUNRISE AND SUNSET
MAY 24 2017...........SUNRISE   538 AM PDT   SUNSET   815 PM PDT
MAY 25 2017...........SUNRISE   537 AM PDT   SUNSET   815 PM PDT



USA.gov is the U.S. government's official web portal to all federal, state and local government web resources and services.